Terminal Aerodrome Forecast
Issued by NWS Shreveport, LA

Home | Current Version | Previous Version | Text Only | Print | Product List | Glossary On
Versions: 1 2 3 4 5 6 7 8 9 10 11 12 13 14 15
000
FTUS44 KSHV 172338
TAFGGG
TAF
KGGG 172338Z 1800/1824 VRB03KT 6SM BR OVC005
      TEMPO 1801/1803 2SM BR OVC003
     FM180300 00000KT 2SM BR OVC003
      TEMPO 1803/1806 1/2SM FG OVC002
     FM180600 00000KT 1/2SM FG OVC002
     FM181600 VRB03KT 1 1/2SM BR OVC003
     FM181800 09005KT 5SM BR OVC005=

USA.gov is the U.S. government's official web portal to all federal, state and local government web resources and services.